North Plains, Oregon
Current Conditions -  °F | °C
As of 9:04 PM on Wednesday 22 Oct 2014 (Local Time) from KHIO Reporting Station
Light Rain Light Rain  
Wind Chill: 56°   Ceiling: 5500
Heat Index: 56°   Visibility: 8mi
Dew Point: 54°   Wind: 9mph
Humidity: 93%   Direction: 200°SSW
Pressure: 29.74"   Gusts: NA
Location:  45.6°N, 122.99°W
Report Text: KHIO 230404Z 20008KT 8SM -RA FEW014 BKN055 OVC065 13/12 A2974 RMK AO2 P0001 T01330122
Loading
Personal Weather Stations






























Interactive Weather Map
Tropical Storm Tracking
New forecast layout! Learn more

10-Day Weather Forecast

Advertisements
Track Severe Weather on mobile